Time;durP1;ratioP1;P1;durP2;ratioP2;P2;SDS_P1;SDS_P2;PMS_P1;PMS_P2;Temp;Humidity;BMP_temperature;BMP_pressure;BME280_temperature;BME280_humidity;BME280_pressure;Samples;Min_cycle;Max_cycle;Signal;HPM_P1;HPM_P2
2021/05/11 00:00:58;;;;;;;2.87;2.10;;;;;;;11.33;91.61;95013.16;10412236;28;20108;-79
2021/05/11 00:05:58;;;;;;;5.15;2.20;;;;;;;11.26;90.92;95005.38;10391978;28;20022;-79
2021/05/11 00:10:59;;;;;;;6.75;2.15;;;;;;;11.21;92.23;95008.06;10409388;28;20831;-79
2021/05/11 00:15:59;;;;;;;3.27;2.97;;;;;;;11.31;92.61;95006.44;10410010;28;20025;-79
2021/05/11 00:21:00;;;;;;;6.30;2.42;;;;;;;11.19;94.89;94999.47;10411001;28;20071;-80
2021/05/11 00:26:00;;;;;;;3.30;2.28;;;;;;;11.16;97.57;95010.72;10410182;28;20025;-79
2021/05/11 00:31:01;;;;;;;6.90;2.40;;;;;;;11.17;97.67;95006.19;10410204;28;20108;-80
2021/05/11 00:36:01;;;;;;;5.70;3.17;;;;;;;11.10;96.57;95003.75;10410319;28;20407;-79
2021/05/11 00:41:02;;;;;;;5.82;3.08;;;;;;;11.07;98.57;95005.09;10409817;28;20037;-79
2021/05/11 00:46:02;;;;;;;4.03;2.88;;;;;;;11.07;100.00;95005.09;10409456;28;20053;-79
2021/05/11 00:51:04;;;;;;;8.67;5.47;;;;;;;11.00;100.00;95006.47;10409604;28;20425;-79
2021/05/11 00:56:06;;;;;;;6.30;2.90;;;;;;;10.94;100.00;95001.06;10409302;28;20042;-79
2021/05/11 01:01:06;;;;;;;5.05;2.53;;;;;;;11.03;100.00;94992.47;10408645;28;20171;-79
2021/05/11 01:06:07;;;;;;;6.90;2.40;;;;;;;10.97;100.00;94994.34;10391056;28;20030;-79
2021/05/11 01:11:07;;;;;;;4.03;2.47;;;;;;;10.88;100.00;94985.19;10408458;28;20038;-79
2021/05/11 01:16:08;;;;;;;9.05;3.20;;;;;;;10.76;100.00;94982.78;10408034;28;20026;-79
2021/05/11 01:48:10;;;;;;;4.37;2.83;;;;;;;10.51;100.00;94964.75;10407096;28;19968;-79
2021/05/11 02:24:23;;;;;;;6.13;4.47;;;;;;;10.02;100.00;94949.81;10406455;28;19909;-80
2021/05/11 02:29:23;;;;;;;5.47;3.50;;;;;;;10.04;100.00;94951.16;10406433;28;20025;-80
2021/05/11 02:34:23;;;;;;;25.73;5.00;;;;;;;9.89;100.00;94951.13;10406089;28;20144;-80
2021/05/11 02:39:24;;;;;;;3.77;3.23;;;;;;;9.65;100.00;94945.41;10387382;28;20060;-80
2021/05/11 02:44:24;;;;;;;4.88;3.90;;;;;;;9.39;100.00;94948.78;10404431;28;20100;-79
2021/05/11 02:49:25;;;;;;;6.17;4.70;;;;;;;9.17;100.00;94962.31;10404917;28;20029;-80
2021/05/11 02:54:26;;;;;;;13.77;4.43;;;;;;;9.12;100.00;94951.53;10405927;28;20916;-79
2021/05/11 02:59:26;;;;;;;5.32;4.13;;;;;;;9.05;100.00;94943.72;10405070;28;20042;-79
2021/05/11 03:04:27;;;;;;;6.53;4.93;;;;;;;9.07;100.00;94935.44;10387677;28;20048;-80
2021/05/11 03:09:28;;;;;;;6.22;5.22;;;;;;;8.92;100.00;94946.88;10404887;28;20057;-81
2021/05/11 03:14:33;;;;;;;8.50;4.57;;;;;;;8.94;100.00;94950.06;10405475;28;20030;-79
2021/05/11 03:19:33;;;;;;;15.40;5.43;;;;;;;8.95;100.00;94942.88;10417090;28;20033;-80
2021/05/11 03:24:36;;;;;;;8.40;5.80;;;;;;;8.96;100.00;94942.59;10355541;28;20435;-80
2021/05/11 03:29:36;;;;;;;7.28;5.95;;;;;;;9.05;100.00;94942.91;10344794;28;20026;-80
2021/05/11 03:34:38;;;;;;;7.93;5.35;;;;;;;9.15;100.00;94939.50;10362316;28;20030;-79
2021/05/11 03:39:42;;;;;;;12.75;5.32;;;;;;;9.12;100.00;94945.38;10363395;28;20057;-79
2021/05/11 03:44:46;;;;;;;8.68;6.05;;;;;;;9.14;100.00;94949.44;10363446;28;20046;-79
2021/05/11 03:49:46;;;;;;;9.35;5.25;;;;;;;9.19;100.00;94943.28;10400552;28;20528;-80
2021/05/11 03:54:47;;;;;;;10.65;6.05;;;;;;;9.30;100.00;94944.94;10403995;28;20184;-78
2021/05/11 03:59:47;;;;;;;8.90;5.77;;;;;;;9.44;100.00;94939.94;10403625;28;20033;-77
2021/05/11 04:04:48;;;;;;;10.17;6.30;;;;;;;9.63;100.00;94937.63;10401876;28;20025;-78
2021/05/11 04:09:53;;;;;;;10.05;6.82;;;;;;;9.68;100.00;94939.50;10401012;28;20291;-77
2021/05/11 04:20:13;;;;;;;12.32;6.13;;;;;;;9.91;100.00;94949.00;10373002;28;20038;-78
2021/05/11 04:25:14;;;;;;;10.07;5.53;;;;;;;10.05;100.00;94958.16;10369550;28;20029;-78
2021/05/11 04:30:18;;;;;;;8.77;5.63;;;;;;;10.20;100.00;94943.97;10368332;28;20034;-78
2021/05/11 04:35:19;;;;;;;5.45;4.65;;;;;;;10.34;100.00;94947.00;10368311;28;20037;-78
2021/05/11 04:40:20;;;;;;;9.30;4.60;;;;;;;10.69;100.00;94940.03;10369512;28;20025;-77
2021/05/11 04:45:24;;;;;;;11.25;5.72;;;;;;;11.36;100.00;94934.59;10367468;28;20053;-77
2021/05/11 04:50:24;;;;;;;13.15;4.68;;;;;;;12.04;100.00;94933.28;10407717;28;20412;-78
2021/05/11 04:55:25;;;;;;;9.90;5.65;;;;;;;12.65;100.00;94929.38;10390150;28;20040;-78
2021/05/11 05:00:25;;;;;;;8.35;5.95;;;;;;;13.32;100.00;94925.31;10407420;28;20037;-78
2021/05/11 05:05:26;;;;;;;11.02;4.88;;;;;;;13.72;95.66;94920.59;10415702;28;20029;-78
2021/05/11 05:10:26;;;;;;;12.33;6.30;;;;;;;14.50;89.35;94921.19;10418651;28;20079;-77
2021/05/11 05:15:26;;;;;;;8.63;5.30;;;;;;;15.22;85.34;94916.53;10444557;28;20044;-78
2021/05/11 05:20:27;;;;;;;11.60;4.63;;;;;;;15.86;76.66;94921.31;10428847;28;20025;-77
2021/05/11 05:25:28;;;;;;;13.67;5.50;;;;;;;16.36;73.99;94917.84;10445204;28;20350;-77
2021/05/11 05:30:29;;;;;;;11.85;5.30;;;;;;;17.28;65.99;94906.72;10444198;28;20025;-78
2021/05/11 05:35:30;;;;;;;13.17;4.67;;;;;;;17.66;62.72;94900.81;10417270;28;20515;-78
2021/05/11 05:40:33;;;;;;;10.05;4.75;;;;;;;18.41;60.35;94902.78;10435623;28;20044;-79
2021/05/11 05:45:34;;;;;;;8.57;4.03;;;;;;;18.57;58.86;94901.22;10445983;28;20045;-77
2021/05/11 05:50:35;;;;;;;5.43;4.07;;;;;;;19.28;53.79;94893.78;10427202;28;20026;-77
2021/05/11 05:55:35;;;;;;;7.47;3.30;;;;;;;19.77;54.11;94891.53;10405924;28;20033;-78
2021/05/11 06:00:35;;;;;;;35.57;5.37;;;;;;;20.50;50.31;94892.41;10387621;28;20123;-78
2021/05/11 06:05:36;;;;;;;7.73;3.60;;;;;;;20.74;49.13;94893.69;10422584;28;20126;-78
2021/05/11 06:10:37;;;;;;;6.50;3.00;;;;;;;21.60;46.62;94891.25;10405507;28;20279;-78
2021/05/11 06:20:56;;;;;;;7.47;2.55;;;;;;;20.51;45.38;94891.25;10446019;28;20043;-78
2021/05/11 06:25:56;;;;;;;7.23;2.90;;;;;;;21.97;43.41;94879.53;10445947;28;20021;-78
2021/05/11 06:30:56;;;;;;;8.00;2.37;;;;;;;22.82;41.05;94871.53;10443028;28;20115;-79
2021/05/11 06:35:57;;;;;;;7.20;2.50;;;;;;;23.50;39.12;94869.84;10416933;28;20048;-78
2021/05/11 06:40:58;;;;;;;6.30;2.67;;;;;;;23.86;37.48;94871.53;10403874;28;20021;-78
2021/05/11 06:56:10;;;;;;;7.00;2.35;;;;;;;25.20;34.78;94855.19;10404056;28;20030;-77
2021/05/11 07:01:14;;;;;;;4.45;2.50;;;;;;;25.89;33.47;94857.97;10403590;28;20136;-78
2021/05/11 07:06:17;;;;;;;6.78;2.60;;;;;;;26.90;31.89;94842.91;10403852;28;20031;-78
2021/05/11 07:16:21;;;;;;;7.20;2.30;;;;;;;27.83;30.47;94842.28;10404787;28;20501;-78
2021/05/11 07:21:21;;;;;;;8.07;2.08;;;;;;;28.89;29.53;94841.81;10404457;28;20152;-78
2021/05/11 07:31:22;;;;;;;8.17;2.30;;;;;;;29.31;29.44;94826.53;10404341;28;20168;-77
2021/05/11 07:36:23;;;;;;;12.97;2.50;;;;;;;30.15;27.80;94822.63;10404689;28;20481;-78
2021/05/11 07:41:23;;;;;;;3.20;1.83;;;;;;;28.29;29.38;94819.75;10404016;28;20029;-78
2021/05/11 08:02:18;;;;;;;4.15;1.90;;;;;;;32.11;25.21;94787.16;10431597;28;20071;-76
2021/05/11 08:28:11;;;;;;;6.03;2.50;;;;;;;33.19;25.46;94769.25;10450189;28;20021;-76
2021/05/11 08:33:11;;;;;;;10.07;2.30;;;;;;;32.95;25.41;94765.59;10450769;28;20502;-77
2021/05/11 08:38:12;;;;;;;8.37;1.80;;;;;;;33.58;23.68;94761.53;10451526;28;20021;-76
2021/05/11 08:43:28;;;;;;;10.77;2.50;;;;;;;34.01;23.65;94758.06;10451214;28;20056;-76
2021/05/11 08:48:30;;;;;;;7.78;1.92;;;;;;;34.41;23.34;94746.97;10448911;28;20073;-77
2021/05/11 09:25:30;;;;;;;6.32;1.17;;;;;;;35.40;22.09;94714.59;10429751;28;20041;-77
2021/05/11 09:30:58;;;;;;;7.10;1.20;;;;;;;34.68;21.42;94712.56;10382066;28;20111;-76
2021/05/11 09:52:27;;;;;;;3.47;0.82;;;;;;;37.16;20.83;94685.81;10438256;28;20809;-77
2021/05/11 10:50:43;;;;;;;5.27;0.63;;;;;;;39.46;16.47;94623.44;10383688;28;20021;-80
2021/05/11 10:55:45;;;;;;;0.80;0.40;;;;;;;39.17;15.57;94621.03;10385263;28;20036;-80
2021/05/11 11:00:57;;;;;;;1.20;0.47;;;;;;;38.59;16.36;94623.25;10392051;28;20025;-80
2021/05/11 11:06:01;;;;;;;0.98;0.40;;;;;;;35.96;17.57;94614.13;10405635;28;20079;-80
2021/05/11 11:11:11;;;;;;;2.42;0.55;;;;;;;32.19;19.10;94624.63;10406129;28;20025;-80
2021/05/11 11:16:12;;;;;;;1.33;0.50;;;;;;;29.91;22.04;94613.66;10406236;28;20044;-80
2021/05/11 11:21:46;;;;;;;0.98;0.45;;;;;;;28.71;24.34;94612.19;10406363;28;20502;-80
2021/05/11 11:26:44;;;;;;;3.70;2.10;;;;;;;28.20;24.86;94611.25;10405928;28;20031;-80
2021/05/11 11:31:45;;;;;;;1.02;0.70;;;;;;;27.77;25.07;94607.09;10412801;28;20045;-80
2021/05/11 11:36:59;;;;;;;2.75;0.65;;;;;;;27.31;26.88;94602.09;10413618;28;20393;-80
2021/05/11 11:42:03;;;;;;;2.08;0.80;;;;;;;26.88;29.17;94599.03;10395778;28;20033;-80
2021/05/11 11:47:09;;;;;;;2.80;0.90;;;;;;;26.69;28.48;94600.00;10413180;28;20041;-80
2021/05/11 11:52:14;;;;;;;0.80;0.70;;;;;;;26.36;28.78;94583.19;10412985;28;20041;-80
2021/05/11 12:03:02;;;;;;;2.22;0.80;;;;;;;25.79;29.04;94577.81;10413748;28;20025;-79
2021/05/11 12:13:14;;;;;;;4.20;0.82;;;;;;;25.71;29.73;94565.91;10413077;28;20025;-79
2021/05/11 12:18:17;;;;;;;3.85;1.13;;;;;;;25.60;30.78;94573.25;10423467;28;20068;-79
2021/05/11 12:23:18;;;;;;;5.78;3.00;;;;;;;25.11;31.27;94543.88;10412054;28;20496;-80
2021/05/11 12:28:43;;;;;;;1.23;0.80;;;;;;;25.04;31.73;94544.56;10412537;28;20039;-80
2021/05/11 12:33:44;;;;;;;6.35;1.00;;;;;;;25.05;32.49;94535.16;10414895;28;20040;-80
2021/05/11 12:38:45;;;;;;;4.35;0.85;;;;;;;24.92;32.75;94529.06;10411290;28;20033;-79
2021/05/11 12:43:52;;;;;;;3.47;1.05;;;;;;;24.68;33.09;94530.28;10394202;28;20033;-79
2021/05/11 12:49:19;;;;;;;1.73;1.00;;;;;;;24.52;33.26;94528.44;10410555;28;20033;-79
2021/05/11 12:54:29;;;;;;;1.30;0.70;;;;;;;24.52;33.70;94531.19;10410167;28;20394;-79
2021/05/11 13:05:03;;;;;;;0.90;0.73;;;;;;;24.23;32.57;94530.69;10410571;28;20846;-79
2021/05/11 13:30:43;;;;;;;2.23;0.77;;;;;;;23.85;32.14;94509.59;10445344;28;20025;-79
2021/05/11 13:35:44;;;;;;;2.78;0.85;;;;;;;23.79;31.88;94514.59;10449790;28;20052;-79
2021/05/11 13:40:44;;;;;;;1.07;0.97;;;;;;;23.74;31.45;94516.84;10449966;28;20044;-79
2021/05/11 13:45:45;;;;;;;0.70;0.70;;;;;;;23.81;31.62;94520.50;10431486;28;20053;-79
2021/05/11 14:06:27;;;;;;;0.82;0.60;;;;;;;23.25;31.97;94507.22;10407143;28;20813;-79
2021/05/11 14:11:27;;;;;;;1.65;0.73;;;;;;;23.07;32.06;94496.69;10407337;28;20037;-80
2021/05/11 14:16:28;;;;;;;2.77;0.73;;;;;;;23.12;32.25;94495.63;10408082;28;20095;-80
2021/05/11 14:21:29;;;;;;;1.40;0.75;;;;;;;23.21;30.92;94485.25;10419485;28;20291;-79
2021/05/11 14:26:30;;;;;;;2.63;0.80;;;;;;;23.29;31.01;94483.44;10443699;28;20024;-80
2021/05/11 14:31:33;;;;;;;0.70;0.70;;;;;;;23.31;30.75;94492.88;10429911;28;20033;-80
2021/05/11 14:36:33;;;;;;;8.70;1.15;;;;;;;23.32;31.14;94471.75;10412297;28;20425;-79
2021/05/11 14:41:34;;;;;;;2.50;0.93;;;;;;;23.27;30.92;94477.53;10447190;28;20099;-79
2021/05/11 14:46:35;;;;;;;4.35;0.90;;;;;;;23.17;30.78;94467.94;10446560;28;20726;-79
2021/05/11 14:51:35;;;;;;;2.40;0.80;;;;;;;23.18;31.22;94470.31;10445331;28;20036;-79
2021/05/11 14:56:39;;;;;;;2.00;0.70;;;;;;;23.17;31.05;94473.41;10446271;28;20386;-79
2021/05/11 15:01:40;;;;;;;2.03;0.93;;;;;;;23.07;31.53;94471.22;10446575;28;20143;-78
2021/05/11 15:06:40;;;;;;;1.38;0.80;;;;;;;22.98;32.52;94464.00;10446130;28;20051;-79
2021/05/11 15:11:41;;;;;;;1.43;0.90;;;;;;;22.96;32.25;94460.03;10428989;28;20447;-79
2021/05/11 15:16:41;;;;;;;4.50;1.60;;;;;;;22.84;32.25;94455.47;10446378;28;20400;-79
2021/05/11 15:21:41;;;;;;;1.57;1.10;;;;;;;22.84;32.78;94449.97;10444529;28;20098;-79
2021/05/11 15:26:42;;;;;;;7.90;1.10;;;;;;;22.84;33.11;94452.72;10443773;28;20052;-79
2021/05/11 15:31:42;;;;;;;3.20;1.08;;;;;;;22.88;33.56;94442.63;10444083;28;20476;-80
2021/05/11 15:36:42;;;;;;;1.53;0.90;;;;;;;22.63;34.18;94439.34;10444590;28;20542;-79
2021/05/11 15:41:43;;;;;;;1.53;0.90;;;;;;;22.57;34.06;94433.34;10445551;28;20310;-79
2021/05/11 15:46:43;;;;;;;3.03;1.13;;;;;;;22.43;35.00;94433.03;10445786;28;20060;-79
2021/05/11 15:51:44;;;;;;;3.00;1.20;;;;;;;22.35;35.36;94426.59;10446035;28;20120;-80
2021/05/11 15:56:44;;;;;;;2.13;1.67;;;;;;;22.39;35.22;94432.94;10445565;28;20381;-79
2021/05/11 16:01:45;;;;;;;3.75;1.50;;;;;;;22.29;35.68;94428.78;10446270;28;20028;-79
2021/05/11 16:06:45;;;;;;;2.27;1.43;;;;;;;22.18;35.89;94434.00;10445283;28;20789;-78
2021/05/11 16:11:46;;;;;;;1.23;0.87;;;;;;;21.97;36.19;94434.28;10445259;28;20029;-79
2021/05/11 16:16:46;;;;;;;1.33;1.10;;;;;;;21.87;36.07;94426.63;10450613;28;20291;-79
2021/05/11 16:21:46;;;;;;;3.07;1.33;;;;;;;21.78;36.53;94435.00;10452929;28;20411;-79
2021/05/11 16:26:47;;;;;;;1.70;1.30;;;;;;;21.68;37.02;94439.06;10453046;28;20283;-79
2021/05/11 16:31:48;;;;;;;2.90;1.67;;;;;;;21.51;37.18;94431.13;10453383;28;20047;-79
2021/05/11 16:36:48;;;;;;;5.32;1.15;;;;;;;21.39;37.63;94426.53;10453132;28;20032;-79
2021/05/11 16:41:49;;;;;;;4.30;1.30;;;;;;;21.37;37.80;94411.63;10452361;28;20403;-79
2021/05/11 16:46:49;;;;;;;3.22;1.25;;;;;;;21.37;37.91;94422.56;10452286;28;20132;-78
2021/05/11 16:51:50;;;;;;;3.90;1.77;;;;;;;21.25;37.65;94431.59;10452589;28;20035;-78
2021/05/11 16:56:50;;;;;;;10.05;1.48;;;;;;;21.10;37.54;94425.75;10451428;28;20048;-80
2021/05/11 17:01:51;;;;;;;1.85;1.02;;;;;;;20.95;37.04;94429.22;10451436;28;20112;-78
2021/05/11 17:06:54;;;;;;;2.90;1.00;;;;;;;20.76;37.32;94427.94;10451971;28;20025;-79
2021/05/11 17:11:54;;;;;;;3.42;1.25;;;;;;;20.63;37.09;94429.84;10452736;28;20029;-80
2021/05/11 17:16:55;;;;;;;1.63;1.20;;;;;;;20.51;37.21;94435.31;10402424;28;20033;-78
2021/05/11 17:21:56;;;;;;;5.03;1.23;;;;;;;20.41;36.73;94438.53;10426496;28;20287;-78
2021/05/11 17:26:56;;;;;;;1.17;0.77;;;;;;;20.33;37.02;94426.59;10412906;28;20032;-79
2021/05/11 17:31:56;;;;;;;1.73;1.40;;;;;;;20.21;37.13;94430.13;10434914;28;20056;-79
2021/05/11 17:36:57;;;;;;;5.00;1.30;;;;;;;20.05;36.92;94427.31;10408831;28;20033;-79
2021/05/11 17:41:57;;;;;;;1.67;1.15;;;;;;;19.95;37.40;94428.56;10408847;28;20060;-78
2021/05/11 17:46:58;;;;;;;2.90;1.20;;;;;;;19.80;37.75;94430.03;10389547;28;20051;-78
2021/05/11 17:52:02;;;;;;;3.97;1.48;;;;;;;19.72;38.17;94430.09;10384677;28;20285;-79
2021/05/11 17:57:03;;;;;;;6.65;1.27;;;;;;;19.62;38.90;94434.84;10398356;28;20045;-78
2021/05/11 18:02:03;;;;;;;6.38;1.33;;;;;;;19.49;38.75;94438.66;10384741;28;20030;-79
2021/05/11 18:07:04;;;;;;;3.03;1.02;;;;;;;19.25;39.21;94433.94;10387857;28;20386;-79
2021/05/11 18:12:04;;;;;;;1.48;1.30;;;;;;;19.15;39.81;94432.44;10397798;28;20036;-78
2021/05/11 18:17:05;;;;;;;2.47;1.02;;;;;;;18.97;40.20;94433.75;10389372;28;20049;-79
2021/05/11 18:22:05;;;;;;;1.88;1.25;;;;;;;18.79;41.02;94436.56;10388518;28;20036;-80
2021/05/11 18:27:06;;;;;;;5.90;1.63;;;;;;;18.71;41.35;94440.16;10390187;28;20671;-81
2021/05/11 18:32:06;;;;;;;4.27;1.27;;;;;;;18.50;42.14;94443.66;10391628;28;20119;-80
2021/05/11 18:37:33;;;;;;;4.50;1.48;;;;;;;18.39;42.44;94442.44;10399259;28;20394;-80
2021/05/11 18:42:35;;;;;;;5.15;2.22;;;;;;;18.21;43.05;94437.13;10389932;28;20044;-81
2021/05/11 18:47:38;;;;;;;5.28;1.38;;;;;;;18.13;44.25;94448.06;10409278;28;20045;-80
2021/05/11 18:52:39;;;;;;;3.72;1.85;;;;;;;17.95;44.76;94455.50;10407884;28;20044;-80
2021/05/11 18:57:39;;;;;;;3.43;1.47;;;;;;;17.95;45.80;94458.22;10406036;28;20534;-80
2021/05/11 19:02:40;;;;;;;4.40;1.60;;;;;;;17.86;47.01;94460.94;10396880;28;20388;-80
2021/05/11 19:07:40;;;;;;;2.80;1.60;;;;;;;17.60;47.17;94475.41;10407939;28;20032;-80
2021/05/11 19:12:42;;;;;;;2.10;1.70;;;;;;;17.37;48.72;94474.81;10372640;28;20030;-80
2021/05/11 19:17:43;;;;;;;5.03;1.77;;;;;;;17.25;49.68;94472.78;10365611;28;20493;-81
2021/05/11 19:22:46;;;;;;;2.58;1.65;;;;;;;17.13;50.79;94481.56;10418237;28;20032;-80
2021/05/11 19:27:48;;;;;;;12.15;2.45;;;;;;;17.14;51.94;94479.66;10403854;28;20037;-80
2021/05/11 19:32:49;;;;;;;2.63;1.80;;;;;;;17.02;53.02;94483.00;10405318;28;20068;-80
2021/05/11 19:37:49;;;;;;;3.65;1.77;;;;;;;17.00;54.08;94486.06;10404293;28;20523;-79
2021/05/11 19:42:51;;;;;;;2.70;1.77;;;;;;;16.87;55.58;94490.50;10403076;28;20037;-80
2021/05/11 19:47:52;;;;;;;6.53;2.00;;;;;;;16.81;56.76;94480.91;10444663;28;20878;-80
2021/05/11 19:52:52;;;;;;;2.73;2.10;;;;;;;16.68;57.75;94481.88;10455596;28;20041;-80
2021/05/11 19:57:53;;;;;;;7.53;1.63;;;;;;;16.71;58.12;94486.66;10436193;28;20036;-81
2021/05/11 20:02:53;;;;;;;4.93;1.90;;;;;;;16.73;58.47;94484.41;10452902;28;20093;-81
2021/05/11 20:07:54;;;;;;;7.03;2.00;;;;;;;16.71;58.87;94481.22;10452537;28;20032;-81
2021/05/11 20:12:55;;;;;;;3.25;2.22;;;;;;;16.61;59.37;94486.97;10415136;28;20374;-80
2021/05/11 20:17:56;;;;;;;3.07;2.07;;;;;;;16.46;60.17;94490.94;10411325;28;20044;-80
2021/05/11 20:22:57;;;;;;;3.67;1.70;;;;;;;16.44;59.92;94488.53;10433027;28;20599;-81
2021/05/11 20:27:57;;;;;;;4.97;2.25;;;;;;;16.40;59.48;94487.56;10454801;28;20029;-80
2021/05/11 20:32:58;;;;;;;2.13;1.77;;;;;;;16.28;59.34;94484.66;10455515;28;20043;-80
2021/05/11 20:38:00;;;;;;;3.90;1.90;;;;;;;16.09;60.75;94485.75;10453571;28;20729;-80
2021/05/11 20:43:01;;;;;;;4.47;1.50;;;;;;;16.10;60.68;94487.31;10450309;28;20294;-80
2021/05/11 20:48:03;;;;;;;5.18;1.48;;;;;;;16.01;60.28;94491.94;10451993;28;20053;-81
2021/05/11 20:53:04;;;;;;;4.40;1.50;;;;;;;15.89;60.71;94495.22;10452281;28;20060;-81
2021/05/11 20:58:05;;;;;;;5.65;1.52;;;;;;;15.72;61.99;94496.69;10436269;28;20037;-81
2021/05/11 21:03:06;;;;;;;2.75;1.80;;;;;;;15.77;61.15;94497.66;10455103;28;20041;-81
2021/05/11 21:08:06;;;;;;;4.63;1.45;;;;;;;15.75;60.42;94502.63;10436879;28;20791;-81
2021/05/11 21:13:07;;;;;;;2.43;1.27;;;;;;;15.67;60.03;94498.75;10413209;28;20032;-81
2021/05/11 21:18:07;;;;;;;1.50;1.38;;;;;;;15.62;60.11;94499.69;10394225;28;20864;-81
2021/05/11 21:23:08;;;;;;;4.70;1.20;;;;;;;15.57;59.14;94507.94;10412961;28;20032;-81
2021/05/11 21:28:09;;;;;;;4.57;1.97;;;;;;;15.50;60.04;94500.28;10413280;28;20112;-81
2021/05/11 21:33:09;;;;;;;6.03;1.70;;;;;;;15.48;60.23;94498.97;10413885;28;20025;-81
2021/05/11 21:38:09;;;;;;;3.17;1.57;;;;;;;15.48;60.39;94502.47;10412775;28;20412;-81
2021/05/11 21:43:10;;;;;;;7.03;2.70;;;;;;;15.42;59.10;94489.38;10393621;28;20467;-80
2021/05/11 21:48:10;;;;;;;1.70;1.60;;;;;;;15.34;59.49;94491.72;10411734;28;20288;-80
2021/05/11 21:53:11;;;;;;;2.70;1.75;;;;;;;15.21;59.97;94485.28;10394524;28;20276;-81
2021/05/11 21:58:15;;;;;;;8.32;1.83;;;;;;;15.18;59.30;94483.19;10411694;28;20029;-80
2021/05/11 22:03:17;;;;;;;4.00;1.70;;;;;;;14.98;60.90;94483.69;10412616;28;20034;-81
2021/05/11 22:08:18;;;;;;;5.53;1.48;;;;;;;15.03;59.91;94475.44;10395610;28;20055;-82
2021/05/11 22:13:19;;;;;;;3.25;1.50;;;;;;;14.86;60.13;94471.50;10412220;28;20116;-82
2021/05/11 22:18:20;;;;;;;4.75;1.52;;;;;;;14.83;60.62;94472.13;10408572;28;20030;-81
2021/05/11 22:23:21;;;;;;;4.30;1.75;;;;;;;14.78;60.58;94464.09;10406250;28;20457;-81
2021/05/11 22:28:21;;;;;;;4.25;1.45;;;;;;;14.66;62.38;94461.94;10409871;28;20109;-83
2021/05/11 22:33:22;;;;;;;6.38;1.60;;;;;;;14.59;64.36;94461.53;10412213;28;20059;-82
2021/05/11 22:38:22;;;;;;;1.73;1.30;;;;;;;14.41;66.12;94452.44;10412600;28;20037;-83
2021/05/11 22:43:25;;;;;;;2.30;1.50;;;;;;;14.29;66.65;94460.28;10394846;28;20794;-83
2021/05/11 22:48:25;;;;;;;2.97;1.50;;;;;;;14.23;68.17;94448.78;10412555;28;20785;-83
2021/05/11 22:53:26;;;;;;;4.18;1.65;;;;;;;14.15;69.21;94439.50;10413169;28;20040;-83
2021/05/11 22:58:29;;;;;;;3.88;1.58;;;;;;;14.04;69.90;94440.00;10412100;28;20037;-83
2021/05/11 23:03:29;;;;;;;2.22;1.23;;;;;;;13.93;71.08;94439.44;10411972;28;20484;-83
2021/05/11 23:08:29;;;;;;;2.97;1.63;;;;;;;13.91;72.40;94442.44;10410704;28;20032;-82
2021/05/11 23:13:30;;;;;;;3.20;1.27;;;;;;;13.84;71.75;94423.94;10392450;28;20120;-81
2021/05/11 23:18:33;;;;;;;6.20;1.90;;;;;;;13.77;71.92;94425.41;10409974;28;20033;-81
2021/05/11 23:23:34;;;;;;;4.65;1.50;;;;;;;13.65;73.13;94437.53;10409107;28;20037;-81
2021/05/11 23:28:34;;;;;;;2.97;1.30;;;;;;;13.64;74.18;94433.22;10408592;28;20393;-81
2021/05/11 23:33:35;;;;;;;1.60;1.50;;;;;;;13.47;76.10;94427.63;10407257;28;20568;-82
2021/05/11 23:38:35;;;;;;;4.72;2.10;;;;;;;13.39;77.28;94412.91;10406900;28;20044;-81
2021/05/11 23:43:39;;;;;;;3.65;1.70;;;;;;;13.37;78.18;94414.31;10403029;28;20769;-81
2021/05/11 23:48:39;;;;;;;3.55;1.75;;;;;;;13.30;79.14;94411.97;10409770;28;20041;-82
2021/05/11 23:53:40;;;;;;;5.83;1.70;;;;;;;13.20;79.35;94407.56;10410290;28;20393;-82
2021/05/11 23:58:41;;;;;;;3.57;1.53;;;;;;;13.15;79.99;94403.06;10392071;28;20041;-82
